sensor_id;sensor_type;location;lat;lon;timestamp;P1;durP1;ratioP1;P2;durP2;ratioP2
52858;SDS011;38721;53.098;6.596;2022-12-29T00:02:12;5.88;;;4.95;;
52858;SDS011;38721;53.098;6.596;2022-12-29T00:04:39;5.20;;;4.70;;
52858;SDS011;38721;53.098;6.596;2022-12-29T00:07:05;5.75;;;4.90;;
52858;SDS011;38721;53.098;6.596;2022-12-29T00:09:32;5.68;;;4.60;;
52858;SDS011;38721;53.098;6.596;2022-12-29T00:11:59;7.05;;;5.18;;
52858;SDS011;38721;53.098;6.596;2022-12-29T00:14:26;6.38;;;5.18;;
52858;SDS011;38721;53.098;6.596;2022-12-29T00:19:36;8.10;;;5.60;;
52858;SDS011;38721;53.098;6.596;2022-12-29T00:22:20;6.55;;;5.50;;
52858;SDS011;38721;53.098;6.596;2022-12-29T00:25:10;6.28;;;5.68;;
52858;SDS011;38721;53.098;6.596;2022-12-29T00:27:56;6.60;;;5.90;;
52858;SDS011;38721;53.098;6.596;2022-12-29T00:33:28;5.60;;;5.00;;
52858;SDS011;38721;53.098;6.596;2022-12-29T00:38:46;5.95;;;5.35;;
52858;SDS011;38721;53.098;6.596;2022-12-29T00:41:41;6.10;;;5.50;;
52858;SDS011;38721;53.098;6.596;2022-12-29T00:44:25;6.07;;;5.47;;
52858;SDS011;38721;53.098;6.596;2022-12-29T00:46:51;6.15;;;5.55;;
52858;SDS011;38721;53.098;6.596;2022-12-29T00:49:16;5.80;;;5.07;;
52858;SDS011;38721;53.098;6.596;2022-12-29T00:51:58;7.53;;;5.68;;
52858;SDS011;38721;53.098;6.596;2022-12-29T00:54:29;6.75;;;5.35;;
52858;SDS011;38721;53.098;6.596;2022-12-29T00:56:56;6.85;;;5.57;;
52858;SDS011;38721;53.098;6.596;2022-12-29T00:59:22;6.07;;;5.32;;
52858;SDS011;38721;53.098;6.596;2022-12-29T01:01:49;6.03;;;5.30;;
52858;SDS011;38721;53.098;6.596;2022-12-29T01:04:16;5.90;;;5.30;;
52858;SDS011;38721;53.098;6.596;2022-12-29T01:06:42;7.15;;;5.32;;
52858;SDS011;38721;53.098;6.596;2022-12-29T01:09:08;9.43;;;5.80;;
52858;SDS011;38721;53.098;6.596;2022-12-29T01:11:52;7.07;;;5.35;;
52858;SDS011;38721;53.098;6.596;2022-12-29T01:14:19;5.25;;;4.75;;
52858;SDS011;38721;53.098;6.596;2022-12-29T01:16:45;6.70;;;5.13;;
52858;SDS011;38721;53.098;6.596;2022-12-29T01:19:12;7.85;;;5.25;;
52858;SDS011;38721;53.098;6.596;2022-12-29T01:21:38;5.88;;;5.13;;
52858;SDS011;38721;53.098;6.596;2022-12-29T01:24:04;6.28;;;5.45;;
52858;SDS011;38721;53.098;6.596;2022-12-29T01:26:30;5.10;;;4.60;;
52858;SDS011;38721;53.098;6.596;2022-12-29T01:28:55;5.88;;;4.72;;
52858;SDS011;38721;53.098;6.596;2022-12-29T01:31:21;6.82;;;4.80;;
52858;SDS011;38721;53.098;6.596;2022-12-29T01:33:47;4.90;;;4.40;;
52858;SDS011;38721;53.098;6.596;2022-12-29T01:36:18;5.07;;;4.38;;
52858;SDS011;38721;53.098;6.596;2022-12-29T01:38:44;5.82;;;4.35;;
52858;SDS011;38721;53.098;6.596;2022-12-29T01:41:11;5.20;;;4.70;;
52858;SDS011;38721;53.098;6.596;2022-12-29T01:48:47;7.38;;;4.88;;
52858;SDS011;38721;53.098;6.596;2022-12-29T01:51:15;5.28;;;4.57;;
52858;SDS011;38721;53.098;6.596;2022-12-29T01:53:41;5.25;;;4.75;;
52858;SDS011;38721;53.098;6.596;2022-12-29T01:56:08;5.78;;;4.90;;
52858;SDS011;38721;53.098;6.596;2022-12-29T01:58:36;5.68;;;4.53;;
52858;SDS011;38721;53.098;6.596;2022-12-29T02:01:06;5.35;;;3.95;;
52858;SDS011;38721;53.098;6.596;2022-12-29T02:03:33;5.70;;;4.70;;
52858;SDS011;38721;53.098;6.596;2022-12-29T02:08:35;4.50;;;3.80;;
52858;SDS011;38721;53.098;6.596;2022-12-29T02:11:02;5.22;;;4.20;;
52858;SDS011;38721;53.098;6.596;2022-12-29T02:13:28;4.70;;;4.20;;
52858;SDS011;38721;53.098;6.596;2022-12-29T02:16:08;5.07;;;3.95;;
52858;SDS011;38721;53.098;6.596;2022-12-29T02:19:20;5.47;;;4.30;;
52858;SDS011;38721;53.098;6.596;2022-12-29T02:21:57;5.00;;;3.58;;
52858;SDS011;38721;53.098;6.596;2022-12-29T02:27:40;5.45;;;3.70;;
52858;SDS011;38721;53.098;6.596;2022-12-29T02:33:01;5.45;;;3.63;;
52858;SDS011;38721;53.098;6.596;2022-12-29T02:38:36;4.80;;;3.85;;
52858;SDS011;38721;53.098;6.596;2022-12-29T02:44:04;6.47;;;4.18;;
52858;SDS011;38721;53.098;6.596;2022-12-29T02:50:14;4.88;;;3.90;;
52858;SDS011;38721;53.098;6.596;2022-12-29T02:52:37;5.30;;;3.58;;
52858;SDS011;38721;53.098;6.596;2022-12-29T02:55:09;3.85;;;3.35;;
52858;SDS011;38721;53.098;6.596;2022-12-29T02:57:36;4.63;;;3.50;;
52858;SDS011;38721;53.098;6.596;2022-12-29T03:00:10;4.38;;;3.20;;
52858;SDS011;38721;53.098;6.596;2022-12-29T03:02:47;4.38;;;3.45;;
52858;SDS011;38721;53.098;6.596;2022-12-29T03:16:34;3.78;;;3.25;;
52858;SDS011;38721;53.098;6.596;2022-12-29T03:19:51;3.75;;;2.72;;
52858;SDS011;38721;53.098;6.596;2022-12-29T03:22:06;3.17;;;2.60;;
52858;SDS011;38721;53.098;6.596;2022-12-29T03:24:58;3.35;;;2.20;;
52858;SDS011;38721;53.098;6.596;2022-12-29T03:27:39;3.33;;;2.28;;
52858;SDS011;38721;53.098;6.596;2022-12-29T03:30:08;3.40;;;2.13;;
52858;SDS011;38721;53.098;6.596;2022-12-29T03:32:37;4.07;;;2.00;;
52858;SDS011;38721;53.098;6.596;2022-12-29T03:35:08;3.85;;;1.98;;
52858;SDS011;38721;53.098;6.596;2022-12-29T03:37:41;2.47;;;1.90;;
52858;SDS011;38721;53.098;6.596;2022-12-29T03:40:10;2.13;;;1.85;;
52858;SDS011;38721;53.098;6.596;2022-12-29T03:42:36;2.55;;;1.80;;
52858;SDS011;38721;53.098;6.596;2022-12-29T03:45:04;2.90;;;2.15;;
52858;SDS011;38721;53.098;6.596;2022-12-29T03:47:31;2.35;;;1.73;;
52858;SDS011;38721;53.098;6.596;2022-12-29T03:49:56;3.47;;;2.25;;
52858;SDS011;38721;53.098;6.596;2022-12-29T03:52:22;3.83;;;2.15;;
52858;SDS011;38721;53.098;6.596;2022-12-29T03:54:48;2.42;;;1.80;;
52858;SDS011;38721;53.098;6.596;2022-12-29T03:57:14;3.47;;;2.00;;
52858;SDS011;38721;53.098;6.596;2022-12-29T03:59:39;2.60;;;1.88;;
52858;SDS011;38721;53.098;6.596;2022-12-29T04:02:05;2.95;;;2.20;;
52858;SDS011;38721;53.098;6.596;2022-12-29T04:04:30;3.85;;;2.20;;
52858;SDS011;38721;53.098;6.596;2022-12-29T04:06:56;3.97;;;2.22;;
52858;SDS011;38721;53.098;6.596;2022-12-29T04:09:25;2.75;;;2.00;;
52858;SDS011;38721;53.098;6.596;2022-12-29T04:11:51;10.15;;;2.10;;
52858;SDS011;38721;53.098;6.596;2022-12-29T04:14:16;4.93;;;2.65;;
52858;SDS011;38721;53.098;6.596;2022-12-29T04:16:42;3.92;;;2.08;;
52858;SDS011;38721;53.098;6.596;2022-12-29T04:19:08;5.55;;;2.03;;
52858;SDS011;38721;53.098;6.596;2022-12-29T04:21:33;3.85;;;1.95;;
52858;SDS011;38721;53.098;6.596;2022-12-29T04:23:59;4.57;;;2.13;;
52858;SDS011;38721;53.098;6.596;2022-12-29T04:26:28;4.05;;;2.47;;
52858;SDS011;38721;53.098;6.596;2022-12-29T04:28:53;3.08;;;1.55;;
52858;SDS011;38721;53.098;6.596;2022-12-29T04:31:19;2.85;;;1.73;;
52858;SDS011;38721;53.098;6.596;2022-12-29T04:33:45;4.38;;;1.65;;
52858;SDS011;38721;53.098;6.596;2022-12-29T04:36:10;4.50;;;1.60;;
52858;SDS011;38721;53.098;6.596;2022-12-29T04:38:36;5.57;;;1.70;;
52858;SDS011;38721;53.098;6.596;2022-12-29T04:41:02;4.60;;;1.55;;
52858;SDS011;38721;53.098;6.596;2022-12-29T04:43:28;2.65;;;1.30;;
52858;SDS011;38721;53.098;6.596;2022-12-29T04:45:54;4.63;;;1.63;;
52858;SDS011;38721;53.098;6.596;2022-12-29T04:48:20;7.00;;;1.70;;
52858;SDS011;38721;53.098;6.596;2022-12-29T04:50:47;5.00;;;1.33;;
52858;SDS011;38721;53.098;6.596;2022-12-29T04:53:14;4.03;;;1.38;;
52858;SDS011;38721;53.098;6.596;2022-12-29T04:55:41;4.18;;;1.30;;
52858;SDS011;38721;53.098;6.596;2022-12-29T04:58:07;3.42;;;1.23;;
52858;SDS011;38721;53.098;6.596;2022-12-29T05:00:32;6.03;;;1.88;;
52858;SDS011;38721;53.098;6.596;2022-12-29T05:03:01;4.38;;;1.40;;
52858;SDS011;38721;53.098;6.596;2022-12-29T05:05:26;4.50;;;1.50;;
52858;SDS011;38721;53.098;6.596;2022-12-29T05:07:52;6.00;;;1.52;;
52858;SDS011;38721;53.098;6.596;2022-12-29T05:10:18;5.25;;;1.73;;
52858;SDS011;38721;53.098;6.596;2022-12-29T05:12:43;11.35;;;1.88;;
52858;SDS011;38721;53.098;6.596;2022-12-29T05:15:10;6.88;;;2.00;;
52858;SDS011;38721;53.098;6.596;2022-12-29T05:17:36;3.60;;;1.50;;
52858;SDS011;38721;53.098;6.596;2022-12-29T05:20:02;3.20;;;1.42;;
52858;SDS011;38721;53.098;6.596;2022-12-29T05:22:29;9.63;;;2.05;;
52858;SDS011;38721;53.098;6.596;2022-12-29T05:24:55;5.13;;;1.67;;
52858;SDS011;38721;53.098;6.596;2022-12-29T05:27:21;5.80;;;1.63;;
52858;SDS011;38721;53.098;6.596;2022-12-29T05:29:46;5.13;;;2.00;;
52858;SDS011;38721;53.098;6.596;2022-12-29T05:32:13;4.15;;;1.80;;
52858;SDS011;38721;53.098;6.596;2022-12-29T05:34:39;6.30;;;1.88;;
52858;SDS011;38721;53.098;6.596;2022-12-29T05:37:04;4.70;;;1.75;;
52858;SDS011;38721;53.098;6.596;2022-12-29T05:39:33;13.85;;;2.75;;
52858;SDS011;38721;53.098;6.596;2022-12-29T05:41:58;8.68;;;2.05;;
52858;SDS011;38721;53.098;6.596;2022-12-29T05:44:27;5.97;;;1.90;;
52858;SDS011;38721;53.098;6.596;2022-12-29T05:46:53;9.35;;;2.30;;
52858;SDS011;38721;53.098;6.596;2022-12-29T05:49:19;13.80;;;2.83;;
52858;SDS011;38721;53.098;6.596;2022-12-29T05:51:44;7.75;;;2.53;;
52858;SDS011;38721;53.098;6.596;2022-12-29T05:54:12;6.80;;;1.90;;
52858;SDS011;38721;53.098;6.596;2022-12-29T05:56:38;7.43;;;1.92;;
52858;SDS011;38721;53.098;6.596;2022-12-29T05:59:04;7.35;;;2.10;;
52858;SDS011;38721;53.098;6.596;2022-12-29T06:01:29;10.30;;;2.10;;
52858;SDS011;38721;53.098;6.596;2022-12-29T06:03:55;7.10;;;1.70;;
52858;SDS011;38721;53.098;6.596;2022-12-29T06:06:20;5.63;;;1.80;;
52858;SDS011;38721;53.098;6.596;2022-12-29T06:08:46;8.02;;;1.70;;
52858;SDS011;38721;53.098;6.596;2022-12-29T06:11:12;10.20;;;2.08;;
52858;SDS011;38721;53.098;6.596;2022-12-29T06:13:38;8.05;;;1.50;;
52858;SDS011;38721;53.098;6.596;2022-12-29T06:16:03;9.13;;;1.80;;
52858;SDS011;38721;53.098;6.596;2022-12-29T06:18:29;5.05;;;1.60;;
52858;SDS011;38721;53.098;6.596;2022-12-29T06:20:59;9.32;;;1.85;;
52858;SDS011;38721;53.098;6.596;2022-12-29T06:23:26;6.55;;;1.70;;
52858;SDS011;38721;53.098;6.596;2022-12-29T06:25:52;11.32;;;2.30;;
52858;SDS011;38721;53.098;6.596;2022-12-29T06:28:17;6.38;;;1.75;;
52858;SDS011;38721;53.098;6.596;2022-12-29T06:30:45;6.45;;;1.88;;
52858;SDS011;38721;53.098;6.596;2022-12-29T06:33:11;6.22;;;1.95;;
52858;SDS011;38721;53.098;6.596;2022-12-29T06:35:37;10.38;;;2.17;;
52858;SDS011;38721;53.098;6.596;2022-12-29T06:38:03;9.65;;;1.75;;
52858;SDS011;38721;53.098;6.596;2022-12-29T06:40:29;9.20;;;2.00;;
52858;SDS011;38721;53.098;6.596;2022-12-29T06:42:55;9.93;;;2.70;;
52858;SDS011;38721;53.098;6.596;2022-12-29T06:45:21;12.00;;;2.40;;
52858;SDS011;38721;53.098;6.596;2022-12-29T06:47:49;8.68;;;2.20;;
52858;SDS011;38721;53.098;6.596;2022-12-29T06:50:15;7.80;;;1.95;;
52858;SDS011;38721;53.098;6.596;2022-12-29T06:52:41;13.85;;;2.13;;
52858;SDS011;38721;53.098;6.596;2022-12-29T06:55:06;9.43;;;2.22;;
52858;SDS011;38721;53.098;6.596;2022-12-29T06:57:32;8.13;;;2.53;;
52858;SDS011;38721;53.098;6.596;2022-12-29T06:59:58;11.55;;;1.92;;
52858;SDS011;38721;53.098;6.596;2022-12-29T07:02:24;12.23;;;2.20;;
52858;SDS011;38721;53.098;6.596;2022-12-29T07:04:52;6.78;;;1.80;;
52858;SDS011;38721;53.098;6.596;2022-12-29T07:07:18;8.80;;;2.17;;
52858;SDS011;38721;53.098;6.596;2022-12-29T07:09:45;8.48;;;2.00;;
52858;SDS011;38721;53.098;6.596;2022-12-29T07:12:11;10.27;;;2.50;;
52858;SDS011;38721;53.098;6.596;2022-12-29T07:14:37;10.80;;;2.97;;
52858;SDS011;38721;53.098;6.596;2022-12-29T07:17:02;7.95;;;2.17;;
52858;SDS011;38721;53.098;6.596;2022-12-29T07:19:34;6.07;;;1.75;;
52858;SDS011;38721;53.098;6.596;2022-12-29T07:21:59;12.05;;;2.42;;
52858;SDS011;38721;53.098;6.596;2022-12-29T07:24:29;11.13;;;2.28;;
52858;SDS011;38721;53.098;6.596;2022-12-29T07:26:55;12.77;;;2.40;;
52858;SDS011;38721;53.098;6.596;2022-12-29T07:29:20;11.07;;;2.85;;
52858;SDS011;38721;53.098;6.596;2022-12-29T07:31:46;18.98;;;2.50;;
52858;SDS011;38721;53.098;6.596;2022-12-29T07:34:12;9.52;;;2.35;;
52858;SDS011;38721;53.098;6.596;2022-12-29T07:36:37;12.90;;;2.28;;
52858;SDS011;38721;53.098;6.596;2022-12-29T07:39:03;10.27;;;2.47;;
52858;SDS011;38721;53.098;6.596;2022-12-29T07:41:28;10.68;;;2.67;;
52858;SDS011;38721;53.098;6.596;2022-12-29T07:43:54;10.25;;;2.25;;
52858;SDS011;38721;53.098;6.596;2022-12-29T07:46:20;11.57;;;2.60;;
52858;SDS011;38721;53.098;6.596;2022-12-29T07:48:45;7.93;;;2.40;;
52858;SDS011;38721;53.098;6.596;2022-12-29T07:51:11;10.63;;;2.53;;
52858;SDS011;38721;53.098;6.596;2022-12-29T07:53:37;8.23;;;2.25;;
52858;SDS011;38721;53.098;6.596;2022-12-29T07:56:03;12.75;;;2.30;;
52858;SDS011;38721;53.098;6.596;2022-12-29T07:58:28;8.80;;;2.38;;
52858;SDS011;38721;53.098;6.596;2022-12-29T08:00:54;10.35;;;2.45;;
52858;SDS011;38721;53.098;6.596;2022-12-29T08:03:20;11.60;;;2.47;;
52858;SDS011;38721;53.098;6.596;2022-12-29T08:05:47;8.48;;;2.00;;
52858;SDS011;38721;53.098;6.596;2022-12-29T08:08:13;10.77;;;2.42;;
52858;SDS011;38721;53.098;6.596;2022-12-29T08:10:38;12.45;;;2.95;;
52858;SDS011;38721;53.098;6.596;2022-12-29T08:13:04;11.43;;;2.13;;
52858;SDS011;38721;53.098;6.596;2022-12-29T08:15:32;10.75;;;2.63;;
52858;SDS011;38721;53.098;6.596;2022-12-29T08:17:58;11.38;;;2.38;;
52858;SDS011;38721;53.098;6.596;2022-12-29T08:20:24;10.27;;;2.47;;
52858;SDS011;38721;53.098;6.596;2022-12-29T08:22:50;13.70;;;3.38;;
52858;SDS011;38721;53.098;6.596;2022-12-29T08:25:16;9.27;;;2.13;;
52858;SDS011;38721;53.098;6.596;2022-12-29T08:27:42;8.18;;;2.20;;
52858;SDS011;38721;53.098;6.596;2022-12-29T08:30:07;9.98;;;2.10;;
52858;SDS011;38721;53.098;6.596;2022-12-29T08:32:36;10.93;;;2.08;;
52858;SDS011;38721;53.098;6.596;2022-12-29T08:35:02;9.40;;;2.30;;
52858;SDS011;38721;53.098;6.596;2022-12-29T08:37:28;13.02;;;3.33;;
52858;SDS011;38721;53.098;6.596;2022-12-29T08:39:53;18.92;;;2.80;;
52858;SDS011;38721;53.098;6.596;2022-12-29T08:42:19;10.20;;;2.83;;
52858;SDS011;38721;53.098;6.596;2022-12-29T08:44:45;11.50;;;2.80;;
52858;SDS011;38721;53.098;6.596;2022-12-29T08:47:11;17.13;;;2.95;;
52858;SDS011;38721;53.098;6.596;2022-12-29T08:49:36;17.10;;;2.95;;
52858;SDS011;38721;53.098;6.596;2022-12-29T08:52:05;15.07;;;3.45;;
52858;SDS011;38721;53.098;6.596;2022-12-29T08:54:30;15.27;;;3.05;;
52858;SDS011;38721;53.098;6.596;2022-12-29T08:56:56;12.82;;;2.60;;
52858;SDS011;38721;53.098;6.596;2022-12-29T08:59:21;17.52;;;2.80;;
52858;SDS011;38721;53.098;6.596;2022-12-29T09:01:48;20.05;;;3.15;;
52858;SDS011;38721;53.098;6.596;2022-12-29T09:04:13;16.20;;;2.88;;
52858;SDS011;38721;53.098;6.596;2022-12-29T09:06:39;16.98;;;2.85;;
52858;SDS011;38721;53.098;6.596;2022-12-29T09:09:05;16.15;;;3.15;;
52858;SDS011;38721;53.098;6.596;2022-12-29T09:11:32;16.38;;;2.97;;
52858;SDS011;38721;53.098;6.596;2022-12-29T09:13:58;18.38;;;3.10;;
52858;SDS011;38721;53.098;6.596;2022-12-29T09:16:24;12.95;;;2.88;;
52858;SDS011;38721;53.098;6.596;2022-12-29T09:18:51;11.15;;;3.03;;
52858;SDS011;38721;53.098;6.596;2022-12-29T09:21:17;13.55;;;3.22;;
52858;SDS011;38721;53.098;6.596;2022-12-29T09:23:43;15.88;;;3.28;;
52858;SDS011;38721;53.098;6.596;2022-12-29T09:26:08;11.45;;;2.42;;
52858;SDS011;38721;53.098;6.596;2022-12-29T09:28:37;12.07;;;3.05;;
52858;SDS011;38721;53.098;6.596;2022-12-29T09:31:03;14.55;;;2.90;;
52858;SDS011;38721;53.098;6.596;2022-12-29T09:33:29;12.52;;;2.78;;
52858;SDS011;38721;53.098;6.596;2022-12-29T09:35:56;13.68;;;3.28;;
52858;SDS011;38721;53.098;6.596;2022-12-29T09:38:23;11.98;;;2.65;;
52858;SDS011;38721;53.098;6.596;2022-12-29T09:40:51;10.70;;;2.85;;
52858;SDS011;38721;53.098;6.596;2022-12-29T09:48:36;11.15;;;2.30;;
52858;SDS011;38721;53.098;6.596;2022-12-29T09:51:10;10.93;;;2.63;;
52858;SDS011;38721;53.098;6.596;2022-12-29T09:53:43;9.75;;;2.72;;
52858;SDS011;38721;53.098;6.596;2022-12-29T09:56:15;13.00;;;2.50;;
52858;SDS011;38721;53.098;6.596;2022-12-29T09:58:49;14.57;;;2.97;;
52858;SDS011;38721;53.098;6.596;2022-12-29T10:03:59;12.32;;;2.33;;
52858;SDS011;38721;53.098;6.596;2022-12-29T10:15:03;12.25;;;2.30;;
52858;SDS011;38721;53.098;6.596;2022-12-29T10:17:48;10.30;;;2.35;;
52858;SDS011;38721;53.098;6.596;2022-12-29T10:20:52;11.32;;;2.80;;
52858;SDS011;38721;53.098;6.596;2022-12-29T10:25:56;14.57;;;2.95;;
52858;SDS011;38721;53.098;6.596;2022-12-29T10:28:29;11.00;;;2.67;;
52858;SDS011;38721;53.098;6.596;2022-12-29T10:30:59;13.20;;;3.03;;
52858;SDS011;38721;53.098;6.596;2022-12-29T10:33:34;12.75;;;2.45;;
52858;SDS011;38721;53.098;6.596;2022-12-29T10:36:16;12.18;;;2.40;;
52858;SDS011;38721;53.098;6.596;2022-12-29T10:41:53;9.63;;;2.10;;
52858;SDS011;38721;53.098;6.596;2022-12-29T10:44:33;8.95;;;2.60;;
52858;SDS011;38721;53.098;6.596;2022-12-29T10:47:02;9.77;;;2.22;;
52858;SDS011;38721;53.098;6.596;2022-12-29T10:49:33;12.85;;;2.50;;
52858;SDS011;38721;53.098;6.596;2022-12-29T10:52:05;11.05;;;2.60;;
52858;SDS011;38721;53.098;6.596;2022-12-29T10:54:36;12.80;;;2.20;;
52858;SDS011;38721;53.098;6.596;2022-12-29T10:57:24;11.88;;;2.20;;
52858;SDS011;38721;53.098;6.596;2022-12-29T10:59:57;7.47;;;2.03;;
52858;SDS011;38721;53.098;6.596;2022-12-29T11:02:26;6.43;;;2.00;;
52858;SDS011;38721;53.098;6.596;2022-12-29T11:07:38;9.15;;;2.20;;
52858;SDS011;38721;53.098;6.596;2022-12-29T11:10:15;11.00;;;2.88;;
52858;SDS011;38721;53.098;6.596;2022-12-29T11:12:56;14.40;;;3.33;;
52858;SDS011;38721;53.098;6.596;2022-12-29T11:15:24;9.45;;;2.83;;
52858;SDS011;38721;53.098;6.596;2022-12-29T11:17:57;15.32;;;3.15;;
52858;SDS011;38721;53.098;6.596;2022-12-29T11:20:29;15.63;;;2.97;;
52858;SDS011;38721;53.098;6.596;2022-12-29T11:22:55;14.15;;;2.80;;
52858;SDS011;38721;53.098;6.596;2022-12-29T11:25:21;18.13;;;3.70;;
52858;SDS011;38721;53.098;6.596;2022-12-29T11:27:56;14.30;;;3.25;;
52858;SDS011;38721;53.098;6.596;2022-12-29T11:30:26;9.57;;;2.70;;
52858;SDS011;38721;53.098;6.596;2022-12-29T11:32:54;15.75;;;3.08;;
52858;SDS011;38721;53.098;6.596;2022-12-29T11:35:34;18.50;;;3.60;;
52858;SDS011;38721;53.098;6.596;2022-12-29T11:38:03;14.60;;;3.58;;
52858;SDS011;38721;53.098;6.596;2022-12-29T11:40:30;17.27;;;3.53;;
52858;SDS011;38721;53.098;6.596;2022-12-29T11:42:57;18.05;;;3.72;;
52858;SDS011;38721;53.098;6.596;2022-12-29T11:48:00;16.92;;;3.42;;
52858;SDS011;38721;53.098;6.596;2022-12-29T11:50:33;17.40;;;3.03;;
52858;SDS011;38721;53.098;6.596;2022-12-29T11:53:15;22.23;;;3.90;;
52858;SDS011;38721;53.098;6.596;2022-12-29T11:55:55;16.15;;;3.20;;
52858;SDS011;38721;53.098;6.596;2022-12-29T11:58:28;16.95;;;3.35;;
52858;SDS011;38721;53.098;6.596;2022-12-29T12:01:02;19.33;;;4.40;;
52858;SDS011;38721;53.098;6.596;2022-12-29T12:03:48;15.90;;;4.03;;
52858;SDS011;38721;53.098;6.596;2022-12-29T12:06:24;18.70;;;4.18;;
52858;SDS011;38721;53.098;6.596;2022-12-29T12:11:41;16.77;;;3.45;;
52858;SDS011;38721;53.098;6.596;2022-12-29T12:14:20;23.90;;;4.63;;
52858;SDS011;38721;53.098;6.596;2022-12-29T12:20:12;9.98;;;3.53;;
52858;SDS011;38721;53.098;6.596;2022-12-29T12:23:07;16.63;;;3.88;;
52858;SDS011;38721;53.098;6.596;2022-12-29T12:34:10;21.10;;;3.63;;
52858;SDS011;38721;53.098;6.596;2022-12-29T12:42:20;13.32;;;3.42;;
52858;SDS011;38721;53.098;6.596;2022-12-29T12:45:19;10.98;;;2.60;;
52858;SDS011;38721;53.098;6.596;2022-12-29T12:56:20;17.20;;;2.95;;
52858;SDS011;38721;53.098;6.596;2022-12-29T12:59:14;22.85;;;3.10;;
52858;SDS011;38721;53.098;6.596;2022-12-29T13:18:23;12.02;;;2.33;;
52858;SDS011;38721;53.098;6.596;2022-12-29T13:26:27;12.18;;;2.38;;
52858;SDS011;38721;53.098;6.596;2022-12-29T13:32:12;12.65;;;2.47;;
52858;SDS011;38721;53.098;6.596;2022-12-29T13:37:33;9.30;;;2.22;;
52858;SDS011;38721;53.098;6.596;2022-12-29T13:40:16;10.37;;;2.40;;
52858;SDS011;38721;53.098;6.596;2022-12-29T13:42:47;14.27;;;2.33;;
52858;SDS011;38721;53.098;6.596;2022-12-29T13:45:18;12.95;;;2.10;;
52858;SDS011;38721;53.098;6.596;2022-12-29T13:47:55;13.68;;;2.45;;
52858;SDS011;38721;53.098;6.596;2022-12-29T13:50:45;10.25;;;2.50;;
52858;SDS011;38721;53.098;6.596;2022-12-29T13:56:43;10.85;;;2.03;;
52858;SDS011;38721;53.098;6.596;2022-12-29T13:59:18;10.20;;;1.98;;
52858;SDS011;38721;53.098;6.596;2022-12-29T14:01:53;11.77;;;2.05;;
52858;SDS011;38721;53.098;6.596;2022-12-29T14:04:42;11.75;;;2.63;;
52858;SDS011;38721;53.098;6.596;2022-12-29T14:07:24;13.60;;;2.50;;
52858;SDS011;38721;53.098;6.596;2022-12-29T14:09:51;11.55;;;2.60;;
52858;SDS011;38721;53.098;6.596;2022-12-29T14:12:20;10.40;;;1.90;;
52858;SDS011;38721;53.098;6.596;2022-12-29T14:14:53;9.20;;;2.08;;
52858;SDS011;38721;53.098;6.596;2022-12-29T14:17:19;6.53;;;1.90;;
52858;SDS011;38721;53.098;6.596;2022-12-29T14:19:46;15.27;;;3.28;;
52858;SDS011;38721;53.098;6.596;2022-12-29T14:22:22;11.43;;;2.47;;
52858;SDS011;38721;53.098;6.596;2022-12-29T14:24:52;10.88;;;2.38;;
52858;SDS011;38721;53.098;6.596;2022-12-29T14:29:44;12.32;;;3.00;;
52858;SDS011;38721;53.098;6.596;2022-12-29T14:34:50;14.98;;;2.88;;
52858;SDS011;38721;53.098;6.596;2022-12-29T14:37:38;12.77;;;2.92;;
52858;SDS011;38721;53.098;6.596;2022-12-29T14:40:26;11.40;;;2.50;;
52858;SDS011;38721;53.098;6.596;2022-12-29T14:42:52;11.50;;;3.20;;
52858;SDS011;38721;53.098;6.596;2022-12-29T14:47:46;13.07;;;3.13;;
52858;SDS011;38721;53.098;6.596;2022-12-29T14:50:24;14.68;;;2.40;;
52858;SDS011;38721;53.098;6.596;2022-12-29T14:52:57;13.65;;;2.95;;
52858;SDS011;38721;53.098;6.596;2022-12-29T14:58:04;12.45;;;3.00;;
52858;SDS011;38721;53.098;6.596;2022-12-29T15:00:33;12.85;;;2.88;;
52858;SDS011;38721;53.098;6.596;2022-12-29T15:03:46;11.18;;;2.65;;
52858;SDS011;38721;53.098;6.596;2022-12-29T15:08:44;11.33;;;2.50;;
52858;SDS011;38721;53.098;6.596;2022-12-29T15:11:16;9.95;;;2.78;;
52858;SDS011;38721;53.098;6.596;2022-12-29T15:13:43;9.55;;;2.10;;
52858;SDS011;38721;53.098;6.596;2022-12-29T15:16:23;8.90;;;2.40;;
52858;SDS011;38721;53.098;6.596;2022-12-29T15:18:51;10.80;;;2.40;;
52858;SDS011;38721;53.098;6.596;2022-12-29T15:21:19;8.50;;;2.25;;
52858;SDS011;38721;53.098;6.596;2022-12-29T15:23:54;13.75;;;2.40;;
52858;SDS011;38721;53.098;6.596;2022-12-29T15:26:21;10.90;;;2.15;;
52858;SDS011;38721;53.098;6.596;2022-12-29T15:28:48;12.18;;;2.67;;
52858;SDS011;38721;53.098;6.596;2022-12-29T15:31:17;13.88;;;2.83;;
52858;SDS011;38721;53.098;6.596;2022-12-29T15:33:46;8.43;;;2.40;;
52858;SDS011;38721;53.098;6.596;2022-12-29T15:36:14;12.50;;;2.47;;
52858;SDS011;38721;53.098;6.596;2022-12-29T15:38:47;11.27;;;2.17;;
52858;SDS011;38721;53.098;6.596;2022-12-29T15:44:46;12.98;;;2.63;;
52858;SDS011;38721;53.098;6.596;2022-12-29T15:47:12;10.77;;;2.47;;
52858;SDS011;38721;53.098;6.596;2022-12-29T15:49:47;12.60;;;2.40;;
52858;SDS011;38721;53.098;6.596;2022-12-29T15:52:19;10.95;;;2.70;;
52858;SDS011;38721;53.098;6.596;2022-12-29T15:54:50;12.55;;;3.13;;
52858;SDS011;38721;53.098;6.596;2022-12-29T15:59:48;9.63;;;2.22;;
52858;SDS011;38721;53.098;6.596;2022-12-29T16:02:13;10.30;;;2.55;;
52858;SDS011;38721;53.098;6.596;2022-12-29T16:04:39;16.75;;;2.80;;
52858;SDS011;38721;53.098;6.596;2022-12-29T16:07:21;15.57;;;2.42;;
52858;SDS011;38721;53.098;6.596;2022-12-29T16:09:57;9.77;;;2.20;;
52858;SDS011;38721;53.098;6.596;2022-12-29T16:12:36;11.23;;;2.25;;
52858;SDS011;38721;53.098;6.596;2022-12-29T16:15:05;10.32;;;2.30;;
52858;SDS011;38721;53.098;6.596;2022-12-29T16:17:34;9.65;;;2.53;;
52858;SDS011;38721;53.098;6.596;2022-12-29T16:22:47;9.07;;;2.45;;
52858;SDS011;38721;53.098;6.596;2022-12-29T16:25:17;11.02;;;3.45;;
52858;SDS011;38721;53.098;6.596;2022-12-29T16:27:46;11.40;;;3.40;;
52858;SDS011;38721;53.098;6.596;2022-12-29T16:30:21;17.00;;;3.17;;
52858;SDS011;38721;53.098;6.596;2022-12-29T16:32:50;14.10;;;3.28;;
52858;SDS011;38721;53.098;6.596;2022-12-29T16:35:21;13.63;;;2.88;;
52858;SDS011;38721;53.098;6.596;2022-12-29T16:38:06;10.93;;;3.08;;
52858;SDS011;38721;53.098;6.596;2022-12-29T16:40:48;10.73;;;2.38;;
52858;SDS011;38721;53.098;6.596;2022-12-29T16:43:28;12.45;;;2.25;;
52858;SDS011;38721;53.098;6.596;2022-12-29T16:48:25;3.45;;;1.20;;
52858;SDS011;38721;53.098;6.596;2022-12-29T16:51:14;4.03;;;1.20;;
52858;SDS011;38721;53.098;6.596;2022-12-29T16:54:00;5.60;;;1.50;;
52858;SDS011;38721;53.098;6.596;2022-12-29T16:56:32;6.40;;;1.05;;
52858;SDS011;38721;53.098;6.596;2022-12-29T17:01:27;7.93;;;1.90;;
52858;SDS011;38721;53.098;6.596;2022-12-29T17:03:54;9.88;;;2.80;;
52858;SDS011;38721;53.098;6.596;2022-12-29T17:06:23;9.32;;;2.72;;
52858;SDS011;38721;53.098;6.596;2022-12-29T17:08:51;6.68;;;2.42;;
52858;SDS011;38721;53.098;6.596;2022-12-29T17:11:19;13.07;;;2.50;;
52858;SDS011;38721;53.098;6.596;2022-12-29T17:14:04;9.50;;;2.25;;
52858;SDS011;38721;53.098;6.596;2022-12-29T17:16:29;7.53;;;2.55;;
52858;SDS011;38721;53.098;6.596;2022-12-29T17:18:55;14.07;;;3.22;;
52858;SDS011;38721;53.098;6.596;2022-12-29T17:21:21;6.85;;;2.10;;
52858;SDS011;38721;53.098;6.596;2022-12-29T17:23:46;7.35;;;1.98;;
52858;SDS011;38721;53.098;6.596;2022-12-29T17:26:12;8.05;;;2.65;;
52858;SDS011;38721;53.098;6.596;2022-12-29T17:28:38;6.82;;;2.08;;
52858;SDS011;38721;53.098;6.596;2022-12-29T17:31:04;10.07;;;2.03;;
52858;SDS011;38721;53.098;6.596;2022-12-29T17:33:34;7.20;;;2.17;;
52858;SDS011;38721;53.098;6.596;2022-12-29T17:36:02;7.28;;;1.90;;